Impacts METAR Board INFO
IDs:

KLAS - Las Vegas/McCarran I, NV, US

Updated at: 1938 UTC 17 Dec 2017
Potential Impact None Slight Moderate High
Time17/07Z 17/08Z 17/09Z 17/10Z 17/11Z 17/12Z 17/13Z 17/14Z 17/15Z 17/16Z 17/17Z 17/18Z 17/19Z
VIS10 10 10 10 10 10 10 10 10 10 10 10 10
CIG120 90 90 90 120 120 -- -- -- -- -- -- --
CoverBKNOVCOVCOVCBKNBKNFEWFEWFEWCLRCLRCLRCLR
FltCatVFRVFRVFRVFRVFRVFRVFRVFRVFRVFRVFRVFRVFR
WX--------------------------
WDir350350330340340350350340350340340350330
WSpd17 17 15 18 15 18 17 18 18 19 24 18 14
WGst25 28 -- 26 26 26 24 31 28 28 32 25 22
Raw hourly METARs
KLAS 170656Z 35017G25KT 10SM FEW090 BKN120 12/M03 A2991 RMK AO2 SLP121 T01221033
KLAS 170756Z 35017G28KT 10SM BKN090 OVC120 12/M04 A2992 RMK AO2 PK WND 35028/0754 SLP125 T01171039 401610072
KLAS 170856Z 33015KT 10SM BKN090 OVC120 11/M04 A2994 RMK AO2 PK WND 32031/0817 SLP131 T01111044 53015
KLAS 170956Z 34018G26KT 10SM BKN090 OVC120 11/M05 A2995 RMK AO2 PK WND 35027/0943 SLP136 T01111050
KLAS 171056Z 34015G26KT 10SM SCT090 BKN120 11/M06 A2997 RMK AO2 PK WND 34027/1049 SLP142 T01061056
KLAS 171156Z 35018G26KT 10SM FEW090 BKN120 10/M06 A2998 RMK AO2 PK WND 33028/1058 SLP146 T01001061 10122 20100 51013
KLAS 171256Z 35017G24KT 10SM FEW120 09/M07 A3000 RMK AO2 PK WND 33027/1243 SLP153 T00891067
KLAS 171356Z 34018G31KT 10SM FEW120 09/M07 A3002 RMK AO2 PK WND 34031/1349 SLP160 T00891072
KLAS 171456Z 35018G28KT 10SM FEW120 08/M07 A3006 RMK AO2 PK WND 36029/1413 SLP173 T00831072 53024
KLAS 171556Z 34019G28KT 10SM CLR 09/M08 A3008 RMK AO2 PK WND 36032/1514 SLP182 T00891078
KLAS 171656Z 34024G32KT 10SM CLR 10/M08 A3010 RMK AO2 PK WND 33032/1655 SLP189 T01001078
KLAS 171756Z 35018G25KT 10SM CLR 11/M08 A3011 RMK AO2 PK WND 33029/1701 SLP193 T01061083 10106 20083 51019
KLAS 171856Z 33014G22KT 10SM CLR 11/M08 A3009 RMK AO2 SLP186 T01111083